sensor_id;sensor_type;location;lat;lon;timestamp;temperature;humidity
41664;DHT22;27353;50.906;7.248;2022-12-07T00:01:23;4.50;99.90
41664;DHT22;27353;50.906;7.248;2022-12-07T00:03:53;4.60;99.90
41664;DHT22;27353;50.906;7.248;2022-12-07T00:06:20;4.60;99.90
41664;DHT22;27353;50.906;7.248;2022-12-07T00:08:46;4.60;99.90
41664;DHT22;27353;50.906;7.248;2022-12-07T00:11:15;4.70;99.90
41664;DHT22;27353;50.906;7.248;2022-12-07T00:13:41;4.70;99.90
41664;DHT22;27353;50.906;7.248;2022-12-07T00:16:12;4.70;99.90
41664;DHT22;27353;50.906;7.248;2022-12-07T00:18:38;4.70;99.90
41664;DHT22;27353;50.906;7.248;2022-12-07T00:21:07;4.70;99.90
41664;DHT22;27353;50.906;7.248;2022-12-07T00:23:34;4.70;99.90
41664;DHT22;27353;50.906;7.248;2022-12-07T00:26:11;4.70;99.90
41664;DHT22;27353;50.906;7.248;2022-12-07T00:28:37;4.70;99.90
41664;DHT22;27353;50.906;7.248;2022-12-07T00:31:11;4.80;99.90
41664;DHT22;27353;50.906;7.248;2022-12-07T00:33:37;4.70;99.90
41664;DHT22;27353;50.906;7.248;2022-12-07T00:36:06;4.80;99.90
41664;DHT22;27353;50.906;7.248;2022-12-07T00:38:34;4.80;99.90
41664;DHT22;27353;50.906;7.248;2022-12-07T00:41:02;4.80;99.90
41664;DHT22;27353;50.906;7.248;2022-12-07T00:43:28;4.80;99.90
41664;DHT22;27353;50.906;7.248;2022-12-07T00:45:54;4.80;99.90
41664;DHT22;27353;50.906;7.248;2022-12-07T00:48:20;4.80;99.90
41664;DHT22;27353;50.906;7.248;2022-12-07T00:50:46;4.80;99.90
41664;DHT22;27353;50.906;7.248;2022-12-07T00:53:13;4.80;99.90
41664;DHT22;27353;50.906;7.248;2022-12-07T00:55:38;4.80;99.90
41664;DHT22;27353;50.906;7.248;2022-12-07T00:58:04;4.90;99.90
41664;DHT22;27353;50.906;7.248;2022-12-07T01:00:30;4.90;99.90
41664;DHT22;27353;50.906;7.248;2022-12-07T01:02:56;4.90;99.90
41664;DHT22;27353;50.906;7.248;2022-12-07T01:05:22;4.90;99.90
41664;DHT22;27353;50.906;7.248;2022-12-07T01:07:47;4.80;99.90
41664;DHT22;27353;50.906;7.248;2022-12-07T01:10:13;4.90;99.90
41664;DHT22;27353;50.906;7.248;2022-12-07T01:12:40;4.90;99.90
41664;DHT22;27353;50.906;7.248;2022-12-07T01:15:07;4.80;99.90
41664;DHT22;27353;50.906;7.248;2022-12-07T01:17:33;4.90;99.90
41664;DHT22;27353;50.906;7.248;2022-12-07T01:19:59;4.90;99.90
41664;DHT22;27353;50.906;7.248;2022-12-07T01:22:24;4.90;99.90
41664;DHT22;27353;50.906;7.248;2022-12-07T01:24:50;4.90;99.90
41664;DHT22;27353;50.906;7.248;2022-12-07T01:27:15;4.90;99.90
41664;DHT22;27353;50.906;7.248;2022-12-07T01:29:41;4.90;99.90
41664;DHT22;27353;50.906;7.248;2022-12-07T01:32:07;4.90;99.90
41664;DHT22;27353;50.906;7.248;2022-12-07T01:34:33;4.90;99.90
41664;DHT22;27353;50.906;7.248;2022-12-07T01:36:58;4.90;99.90
41664;DHT22;27353;50.906;7.248;2022-12-07T01:39:24;4.90;99.90
41664;DHT22;27353;50.906;7.248;2022-12-07T01:41:50;4.90;99.90
41664;DHT22;27353;50.906;7.248;2022-12-07T01:44:24;4.90;99.90
41664;DHT22;27353;50.906;7.248;2022-12-07T01:46:53;5.00;99.90
41664;DHT22;27353;50.906;7.248;2022-12-07T01:52:01;4.90;99.90
41664;DHT22;27353;50.906;7.248;2022-12-07T01:54:28;5.00;99.90
41664;DHT22;27353;50.906;7.248;2022-12-07T01:56:56;4.90;99.90
41664;DHT22;27353;50.906;7.248;2022-12-07T01:59:24;4.90;99.90
41664;DHT22;27353;50.906;7.248;2022-12-07T02:01:52;5.00;99.90
41664;DHT22;27353;50.906;7.248;2022-12-07T02:04:18;5.00;99.90
41664;DHT22;27353;50.906;7.248;2022-12-07T02:06:45;5.00;99.90
41664;DHT22;27353;50.906;7.248;2022-12-07T02:09:11;5.00;99.90
41664;DHT22;27353;50.906;7.248;2022-12-07T02:11:38;5.00;99.90
41664;DHT22;27353;50.906;7.248;2022-12-07T02:14:05;4.90;99.90
41664;DHT22;27353;50.906;7.248;2022-12-07T02:28:19;4.90;99.90
41664;DHT22;27353;50.906;7.248;2022-12-07T02:30:47;4.90;99.90
41664;DHT22;27353;50.906;7.248;2022-12-07T02:33:22;5.00;99.90
41664;DHT22;27353;50.906;7.248;2022-12-07T02:35:57;4.90;99.90
41664;DHT22;27353;50.906;7.248;2022-12-07T02:41:02;4.90;99.90
41664;DHT22;27353;50.906;7.248;2022-12-07T02:43:52;4.90;99.90
41664;DHT22;27353;50.906;7.248;2022-12-07T02:46:24;4.90;99.90
41664;DHT22;27353;50.906;7.248;2022-12-07T02:48:51;4.90;99.90
41664;DHT22;27353;50.906;7.248;2022-12-07T02:51:18;4.90;99.90
41664;DHT22;27353;50.906;7.248;2022-12-07T02:53:44;4.90;99.90
41664;DHT22;27353;50.906;7.248;2022-12-07T02:56:39;4.90;99.90
41664;DHT22;27353;50.906;7.248;2022-12-07T03:07:25;4.90;99.90
41664;DHT22;27353;50.906;7.248;2022-12-07T03:12:22;4.90;99.90
41664;DHT22;27353;50.906;7.248;2022-12-07T03:15:01;4.90;99.90
41664;DHT22;27353;50.906;7.248;2022-12-07T03:17:31;4.90;99.90
41664;DHT22;27353;50.906;7.248;2022-12-07T03:20:03;4.90;99.90
41664;DHT22;27353;50.906;7.248;2022-12-07T03:22:31;4.90;99.90
41664;DHT22;27353;50.906;7.248;2022-12-07T03:24:59;4.90;99.90
41664;DHT22;27353;50.906;7.248;2022-12-07T03:27:31;4.90;99.90
41664;DHT22;27353;50.906;7.248;2022-12-07T03:30:02;4.90;99.90
41664;DHT22;27353;50.906;7.248;2022-12-07T03:32:45;4.90;99.90
41664;DHT22;27353;50.906;7.248;2022-12-07T03:42:57;4.90;99.90
41664;DHT22;27353;50.906;7.248;2022-12-07T03:45:26;5.00;99.90
41664;DHT22;27353;50.906;7.248;2022-12-07T03:48:18;5.00;99.90
41664;DHT22;27353;50.906;7.248;2022-12-07T03:50:52;4.90;99.90
41664;DHT22;27353;50.906;7.248;2022-12-07T03:53:22;4.90;99.90
41664;DHT22;27353;50.906;7.248;2022-12-07T03:55:49;4.90;99.90
41664;DHT22;27353;50.906;7.248;2022-12-07T03:58:16;4.90;99.90
41664;DHT22;27353;50.906;7.248;2022-12-07T04:00:43;4.90;99.90
41664;DHT22;27353;50.906;7.248;2022-12-07T04:03:09;4.90;99.90
41664;DHT22;27353;50.906;7.248;2022-12-07T04:05:35;4.90;99.90
41664;DHT22;27353;50.906;7.248;2022-12-07T04:08:00;4.90;99.90
41664;DHT22;27353;50.906;7.248;2022-12-07T04:10:25;4.90;99.90
41664;DHT22;27353;50.906;7.248;2022-12-07T04:12:51;4.90;99.90
41664;DHT22;27353;50.906;7.248;2022-12-07T04:15:16;4.90;99.90
41664;DHT22;27353;50.906;7.248;2022-12-07T04:17:42;4.90;99.90
41664;DHT22;27353;50.906;7.248;2022-12-07T04:20:08;4.90;99.90
41664;DHT22;27353;50.906;7.248;2022-12-07T04:22:33;4.90;99.90
41664;DHT22;27353;50.906;7.248;2022-12-07T04:24:59;4.90;99.90
41664;DHT22;27353;50.906;7.248;2022-12-07T04:27:24;4.90;99.90
41664;DHT22;27353;50.906;7.248;2022-12-07T04:29:50;4.90;99.90
41664;DHT22;27353;50.906;7.248;2022-12-07T04:32:15;4.90;99.90
41664;DHT22;27353;50.906;7.248;2022-12-07T04:34:41;4.90;99.90
41664;DHT22;27353;50.906;7.248;2022-12-07T04:37:06;4.90;99.90
41664;DHT22;27353;50.906;7.248;2022-12-07T04:39:32;4.90;99.90
41664;DHT22;27353;50.906;7.248;2022-12-07T04:42:01;4.90;99.90
41664;DHT22;27353;50.906;7.248;2022-12-07T04:44:27;4.90;99.90
41664;DHT22;27353;50.906;7.248;2022-12-07T04:46:53;4.90;99.90
41664;DHT22;27353;50.906;7.248;2022-12-07T04:49:19;4.90;99.90
41664;DHT22;27353;50.906;7.248;2022-12-07T04:51:45;4.90;99.90
41664;DHT22;27353;50.906;7.248;2022-12-07T04:54:11;4.90;99.90
41664;DHT22;27353;50.906;7.248;2022-12-07T04:56:37;4.90;99.90
41664;DHT22;27353;50.906;7.248;2022-12-07T04:59:02;5.00;99.90
41664;DHT22;27353;50.906;7.248;2022-12-07T05:01:28;5.00;99.90
41664;DHT22;27353;50.906;7.248;2022-12-07T05:03:53;4.90;99.90
41664;DHT22;27353;50.906;7.248;2022-12-07T05:06:19;4.90;99.90
41664;DHT22;27353;50.906;7.248;2022-12-07T05:08:44;5.00;99.90
41664;DHT22;27353;50.906;7.248;2022-12-07T05:11:10;4.90;99.90
41664;DHT22;27353;50.906;7.248;2022-12-07T05:13:59;5.00;99.90
41664;DHT22;27353;50.906;7.248;2022-12-07T05:16:25;5.00;99.90
41664;DHT22;27353;50.906;7.248;2022-12-07T05:18:50;4.90;99.90
41664;DHT22;27353;50.906;7.248;2022-12-07T05:21:16;5.00;99.90
41664;DHT22;27353;50.906;7.248;2022-12-07T05:23:41;5.00;99.90
41664;DHT22;27353;50.906;7.248;2022-12-07T05:26:07;5.00;99.90
41664;DHT22;27353;50.906;7.248;2022-12-07T05:28:32;4.90;99.90
41664;DHT22;27353;50.906;7.248;2022-12-07T05:30:58;4.90;99.90
41664;DHT22;27353;50.906;7.248;2022-12-07T05:33:23;4.90;99.90
41664;DHT22;27353;50.906;7.248;2022-12-07T05:35:49;4.90;99.90
41664;DHT22;27353;50.906;7.248;2022-12-07T05:38:14;4.90;99.90
41664;DHT22;27353;50.906;7.248;2022-12-07T05:40:39;4.90;99.90
41664;DHT22;27353;50.906;7.248;2022-12-07T05:43:05;4.90;99.90
41664;DHT22;27353;50.906;7.248;2022-12-07T05:45:30;4.90;99.90
41664;DHT22;27353;50.906;7.248;2022-12-07T05:47:56;4.90;99.90
41664;DHT22;27353;50.906;7.248;2022-12-07T05:50:21;4.90;99.90
41664;DHT22;27353;50.906;7.248;2022-12-07T05:52:47;4.90;99.90
41664;DHT22;27353;50.906;7.248;2022-12-07T05:55:12;4.90;99.90
41664;DHT22;27353;50.906;7.248;2022-12-07T05:57:38;4.90;99.90
41664;DHT22;27353;50.906;7.248;2022-12-07T06:00:03;4.90;99.90
41664;DHT22;27353;50.906;7.248;2022-12-07T06:02:29;4.90;99.90
41664;DHT22;27353;50.906;7.248;2022-12-07T06:04:55;4.90;99.90
41664;DHT22;27353;50.906;7.248;2022-12-07T06:07:20;5.00;99.90
41664;DHT22;27353;50.906;7.248;2022-12-07T06:09:45;4.90;99.90
41664;DHT22;27353;50.906;7.248;2022-12-07T06:12:11;4.90;99.90
41664;DHT22;27353;50.906;7.248;2022-12-07T06:14:56;4.90;99.90
41664;DHT22;27353;50.906;7.248;2022-12-07T06:17:21;4.90;99.90
41664;DHT22;27353;50.906;7.248;2022-12-07T06:19:47;4.90;99.90
41664;DHT22;27353;50.906;7.248;2022-12-07T06:22:12;4.90;99.90
41664;DHT22;27353;50.906;7.248;2022-12-07T06:24:38;4.90;99.90
41664;DHT22;27353;50.906;7.248;2022-12-07T06:27:04;4.90;99.90
41664;DHT22;27353;50.906;7.248;2022-12-07T06:29:30;4.80;99.90
41664;DHT22;27353;50.906;7.248;2022-12-07T06:31:56;4.80;99.90
41664;DHT22;27353;50.906;7.248;2022-12-07T06:34:21;4.80;99.90
41664;DHT22;27353;50.906;7.248;2022-12-07T06:36:48;4.90;99.90
41664;DHT22;27353;50.906;7.248;2022-12-07T06:39:20;4.80;99.90
41664;DHT22;27353;50.906;7.248;2022-12-07T06:41:46;4.80;99.90
41664;DHT22;27353;50.906;7.248;2022-12-07T06:44:11;4.80;99.90
41664;DHT22;27353;50.906;7.248;2022-12-07T06:46:37;4.80;99.90
41664;DHT22;27353;50.906;7.248;2022-12-07T06:49:03;4.80;99.90
41664;DHT22;27353;50.906;7.248;2022-12-07T06:51:28;4.80;99.90
41664;DHT22;27353;50.906;7.248;2022-12-07T06:53:54;4.80;99.90
41664;DHT22;27353;50.906;7.248;2022-12-07T06:56:20;4.80;99.90
41664;DHT22;27353;50.906;7.248;2022-12-07T06:58:46;4.80;99.90
41664;DHT22;27353;50.906;7.248;2022-12-07T07:01:16;4.80;99.90
41664;DHT22;27353;50.906;7.248;2022-12-07T07:03:42;4.80;99.90
41664;DHT22;27353;50.906;7.248;2022-12-07T07:06:08;4.80;99.90
41664;DHT22;27353;50.906;7.248;2022-12-07T07:08:37;4.80;99.90
41664;DHT22;27353;50.906;7.248;2022-12-07T07:11:02;4.80;99.90
41664;DHT22;27353;50.906;7.248;2022-12-07T07:13:28;4.80;99.90
41664;DHT22;27353;50.906;7.248;2022-12-07T07:15:54;4.80;99.90
41664;DHT22;27353;50.906;7.248;2022-12-07T07:18:19;4.80;99.90
41664;DHT22;27353;50.906;7.248;2022-12-07T07:20:45;4.80;99.90
41664;DHT22;27353;50.906;7.248;2022-12-07T07:23:10;4.80;99.90
41664;DHT22;27353;50.906;7.248;2022-12-07T07:25:36;4.80;99.90
41664;DHT22;27353;50.906;7.248;2022-12-07T07:28:01;4.80;99.90
41664;DHT22;27353;50.906;7.248;2022-12-07T07:30:27;4.70;99.90
41664;DHT22;27353;50.906;7.248;2022-12-07T07:32:56;4.70;99.90
41664;DHT22;27353;50.906;7.248;2022-12-07T07:35:21;4.70;99.90
41664;DHT22;27353;50.906;7.248;2022-12-07T07:37:47;4.70;99.90
41664;DHT22;27353;50.906;7.248;2022-12-07T07:40:12;4.60;99.90
41664;DHT22;27353;50.906;7.248;2022-12-07T07:42:38;4.60;99.90
41664;DHT22;27353;50.906;7.248;2022-12-07T07:45:03;4.50;99.90
41664;DHT22;27353;50.906;7.248;2022-12-07T07:47:29;4.60;99.90
41664;DHT22;27353;50.906;7.248;2022-12-07T07:49:55;4.60;99.90
41664;DHT22;27353;50.906;7.248;2022-12-07T07:52:20;4.60;99.90
41664;DHT22;27353;50.906;7.248;2022-12-07T07:54:46;4.60;99.90
41664;DHT22;27353;50.906;7.248;2022-12-07T07:57:11;4.60;99.90
41664;DHT22;27353;50.906;7.248;2022-12-07T07:59:37;4.70;99.90
41664;DHT22;27353;50.906;7.248;2022-12-07T08:02:02;4.70;99.90
41664;DHT22;27353;50.906;7.248;2022-12-07T08:04:27;4.70;99.90
41664;DHT22;27353;50.906;7.248;2022-12-07T08:06:53;4.70;99.90
41664;DHT22;27353;50.906;7.248;2022-12-07T08:09:18;4.70;99.90
41664;DHT22;27353;50.906;7.248;2022-12-07T08:11:44;4.70;99.90
41664;DHT22;27353;50.906;7.248;2022-12-07T08:14:10;4.90;99.90
41664;DHT22;27353;50.906;7.248;2022-12-07T08:16:37;4.90;99.90
41664;DHT22;27353;50.906;7.248;2022-12-07T08:19:04;5.00;99.90
41664;DHT22;27353;50.906;7.248;2022-12-07T08:21:29;5.00;99.90
41664;DHT22;27353;50.906;7.248;2022-12-07T08:23:55;5.00;99.90
41664;DHT22;27353;50.906;7.248;2022-12-07T08:26:22;5.00;99.90
41664;DHT22;27353;50.906;7.248;2022-12-07T08:28:47;5.10;99.90
41664;DHT22;27353;50.906;7.248;2022-12-07T08:31:14;5.20;99.90
41664;DHT22;27353;50.906;7.248;2022-12-07T08:33:39;5.30;99.90
41664;DHT22;27353;50.906;7.248;2022-12-07T08:36:06;5.40;99.90
41664;DHT22;27353;50.906;7.248;2022-12-07T08:38:33;5.50;99.90
41664;DHT22;27353;50.906;7.248;2022-12-07T08:40:59;5.40;99.90
41664;DHT22;27353;50.906;7.248;2022-12-07T08:43:24;5.30;99.90
41664;DHT22;27353;50.906;7.248;2022-12-07T08:45:53;5.30;99.90
41664;DHT22;27353;50.906;7.248;2022-12-07T08:48:20;5.20;99.90
41664;DHT22;27353;50.906;7.248;2022-12-07T08:50:49;5.30;99.90
41664;DHT22;27353;50.906;7.248;2022-12-07T08:53:15;5.30;99.90
41664;DHT22;27353;50.906;7.248;2022-12-07T08:55:41;5.30;99.90
41664;DHT22;27353;50.906;7.248;2022-12-07T08:58:06;5.30;99.90
41664;DHT22;27353;50.906;7.248;2022-12-07T09:00:31;5.20;99.90
41664;DHT22;27353;50.906;7.248;2022-12-07T09:02:57;5.30;99.90
41664;DHT22;27353;50.906;7.248;2022-12-07T09:05:22;5.30;99.90
41664;DHT22;27353;50.906;7.248;2022-12-07T09:07:50;5.30;99.90
41664;DHT22;27353;50.906;7.248;2022-12-07T09:10:16;5.30;99.90
41664;DHT22;27353;50.906;7.248;2022-12-07T09:12:42;5.40;99.90
41664;DHT22;27353;50.906;7.248;2022-12-07T09:15:07;5.40;99.90
41664;DHT22;27353;50.906;7.248;2022-12-07T09:17:33;5.40;99.90
41664;DHT22;27353;50.906;7.248;2022-12-07T09:19:59;5.30;99.90
41664;DHT22;27353;50.906;7.248;2022-12-07T09:22:28;5.20;99.90
41664;DHT22;27353;50.906;7.248;2022-12-07T09:24:53;5.30;99.90
41664;DHT22;27353;50.906;7.248;2022-12-07T09:27:19;5.30;99.90
41664;DHT22;27353;50.906;7.248;2022-12-07T09:29:44;5.30;99.90
41664;DHT22;27353;50.906;7.248;2022-12-07T09:32:10;5.40;99.90
41664;DHT22;27353;50.906;7.248;2022-12-07T09:34:35;5.50;99.90
41664;DHT22;27353;50.906;7.248;2022-12-07T09:37:01;5.50;99.90
41664;DHT22;27353;50.906;7.248;2022-12-07T09:39:28;5.50;99.90
41664;DHT22;27353;50.906;7.248;2022-12-07T09:41:53;5.60;99.90
41664;DHT22;27353;50.906;7.248;2022-12-07T09:44:23;5.60;99.90
41664;DHT22;27353;50.906;7.248;2022-12-07T09:46:49;5.90;99.90
41664;DHT22;27353;50.906;7.248;2022-12-07T09:49:22;6.20;99.90
41664;DHT22;27353;50.906;7.248;2022-12-07T09:51:59;6.40;99.90
41664;DHT22;27353;50.906;7.248;2022-12-07T09:54:25;6.50;99.90
41664;DHT22;27353;50.906;7.248;2022-12-07T09:56:51;6.50;99.90
41664;DHT22;27353;50.906;7.248;2022-12-07T09:59:17;6.40;99.90
41664;DHT22;27353;50.906;7.248;2022-12-07T10:01:43;6.40;99.90
41664;DHT22;27353;50.906;7.248;2022-12-07T10:04:12;6.30;99.90
41664;DHT22;27353;50.906;7.248;2022-12-07T10:06:38;6.30;99.90
41664;DHT22;27353;50.906;7.248;2022-12-07T10:09:14;6.30;99.90
41664;DHT22;27353;50.906;7.248;2022-12-07T10:14:24;6.40;99.90
41664;DHT22;27353;50.906;7.248;2022-12-07T10:16:50;6.40;99.90
41664;DHT22;27353;50.906;7.248;2022-12-07T10:19:20;6.40;99.90
41664;DHT22;27353;50.906;7.248;2022-12-07T10:21:59;6.30;99.90
41664;DHT22;27353;50.906;7.248;2022-12-07T10:24:24;6.40;99.90
41664;DHT22;27353;50.906;7.248;2022-12-07T10:26:51;6.30;99.90
41664;DHT22;27353;50.906;7.248;2022-12-07T10:29:30;6.40;99.90
41664;DHT22;27353;50.906;7.248;2022-12-07T10:31:57;6.40;99.90
41664;DHT22;27353;50.906;7.248;2022-12-07T10:37:17;6.30;99.90
41664;DHT22;27353;50.906;7.248;2022-12-07T10:39:48;6.20;99.90
41664;DHT22;27353;50.906;7.248;2022-12-07T10:42:21;6.20;99.90
41664;DHT22;27353;50.906;7.248;2022-12-07T10:44:48;6.10;99.90
41664;DHT22;27353;50.906;7.248;2022-12-07T10:55:05;6.00;99.90
41664;DHT22;27353;50.906;7.248;2022-12-07T10:57:45;5.90;99.90
41664;DHT22;27353;50.906;7.248;2022-12-07T11:02:49;5.90;99.90
41664;DHT22;27353;50.906;7.248;2022-12-07T11:05:29;5.80;99.90
41664;DHT22;27353;50.906;7.248;2022-12-07T11:08:09;5.90;99.90
41664;DHT22;27353;50.906;7.248;2022-12-07T11:10:44;5.90;99.90
41664;DHT22;27353;50.906;7.248;2022-12-07T11:18:11;6.20;99.90
41664;DHT22;27353;50.906;7.248;2022-12-07T11:25:43;6.40;99.90
41664;DHT22;27353;50.906;7.248;2022-12-07T11:30:57;6.50;99.90
41664;DHT22;27353;50.906;7.248;2022-12-07T11:33:47;6.50;99.90
41664;DHT22;27353;50.906;7.248;2022-12-07T11:38:53;6.50;99.90
41664;DHT22;27353;50.906;7.248;2022-12-07T11:41:24;6.50;99.90
41664;DHT22;27353;50.906;7.248;2022-12-07T11:46:37;7.70;99.90
41664;DHT22;27353;50.906;7.248;2022-12-07T11:49:10;8.20;99.90
41664;DHT22;27353;50.906;7.248;2022-12-07T11:51:38;8.50;99.90
41664;DHT22;27353;50.906;7.248;2022-12-07T11:54:09;8.50;99.90
41664;DHT22;27353;50.906;7.248;2022-12-07T11:56:36;8.20;99.90
41664;DHT22;27353;50.906;7.248;2022-12-07T12:01:56;8.20;99.90
41664;DHT22;27353;50.906;7.248;2022-12-07T12:04:34;8.10;99.90
41664;DHT22;27353;50.906;7.248;2022-12-07T12:07:07;8.00;99.90
41664;DHT22;27353;50.906;7.248;2022-12-07T12:09:34;7.80;99.90
41664;DHT22;27353;50.906;7.248;2022-12-07T12:12:22;7.50;99.90
41664;DHT22;27353;50.906;7.248;2022-12-07T12:14:56;7.30;99.90
41664;DHT22;27353;50.906;7.248;2022-12-07T12:17:37;7.00;99.90
41664;DHT22;27353;50.906;7.248;2022-12-07T12:20:26;6.70;99.90
41664;DHT22;27353;50.906;7.248;2022-12-07T12:25:26;6.50;99.90
41664;DHT22;27353;50.906;7.248;2022-12-07T12:27:53;6.30;99.90
41664;DHT22;27353;50.906;7.248;2022-12-07T12:33:00;6.20;99.90
41664;DHT22;27353;50.906;7.248;2022-12-07T12:37:52;6.50;99.90
41664;DHT22;27353;50.906;7.248;2022-12-07T12:42:47;6.60;99.90
41664;DHT22;27353;50.906;7.248;2022-12-07T12:47:57;6.50;99.90
41664;DHT22;27353;50.906;7.248;2022-12-07T12:55:21;6.60;99.90
41664;DHT22;27353;50.906;7.248;2022-12-07T12:58:21;6.60;99.90
41664;DHT22;27353;50.906;7.248;2022-12-07T13:00:35;6.50;99.90
41664;DHT22;27353;50.906;7.248;2022-12-07T13:03:00;6.60;99.90
41664;DHT22;27353;50.906;7.248;2022-12-07T13:05:27;6.60;99.90
41664;DHT22;27353;50.906;7.248;2022-12-07T13:07:56;6.50;99.90
41664;DHT22;27353;50.906;7.248;2022-12-07T13:12:58;6.70;99.90
41664;DHT22;27353;50.906;7.248;2022-12-07T13:15:43;6.80;99.90
41664;DHT22;27353;50.906;7.248;2022-12-07T13:23:24;7.10;99.90
41664;DHT22;27353;50.906;7.248;2022-12-07T13:25:59;7.10;99.90
41664;DHT22;27353;50.906;7.248;2022-12-07T13:28:27;6.90;99.90
41664;DHT22;27353;50.906;7.248;2022-12-07T13:33:22;6.90;99.90
41664;DHT22;27353;50.906;7.248;2022-12-07T13:35:48;6.90;99.90
41664;DHT22;27353;50.906;7.248;2022-12-07T13:38:22;6.90;99.90
41664;DHT22;27353;50.906;7.248;2022-12-07T13:41:10;6.90;99.90
41664;DHT22;27353;50.906;7.248;2022-12-07T13:43:43;6.80;99.90
41664;DHT22;27353;50.906;7.248;2022-12-07T13:46:09;6.80;99.90
41664;DHT22;27353;50.906;7.248;2022-12-07T13:48:48;6.70;99.90
41664;DHT22;27353;50.906;7.248;2022-12-07T13:51:18;6.70;99.90
41664;DHT22;27353;50.906;7.248;2022-12-07T13:53:48;6.60;99.90
41664;DHT22;27353;50.906;7.248;2022-12-07T13:56:14;6.60;99.90
41664;DHT22;27353;50.906;7.248;2022-12-07T13:58:41;6.50;99.90
41664;DHT22;27353;50.906;7.248;2022-12-07T14:01:07;6.40;99.90
41664;DHT22;27353;50.906;7.248;2022-12-07T14:03:33;6.30;99.90
41664;DHT22;27353;50.906;7.248;2022-12-07T14:06:46;6.30;99.90
41664;DHT22;27353;50.906;7.248;2022-12-07T14:08:50;6.30;99.90
41664;DHT22;27353;50.906;7.248;2022-12-07T14:11:17;6.30;99.90
41664;DHT22;27353;50.906;7.248;2022-12-07T14:13:44;6.20;99.90
41664;DHT22;27353;50.906;7.248;2022-12-07T14:18:51;6.10;99.90
41664;DHT22;27353;50.906;7.248;2022-12-07T14:21:17;6.00;99.90
41664;DHT22;27353;50.906;7.248;2022-12-07T14:23:44;6.00;99.90
41664;DHT22;27353;50.906;7.248;2022-12-07T14:28:36;6.00;99.90
41664;DHT22;27353;50.906;7.248;2022-12-07T14:31:02;6.00;99.90
41664;DHT22;27353;50.906;7.248;2022-12-07T14:33:27;6.00;99.90
41664;DHT22;27353;50.906;7.248;2022-12-07T14:35:53;5.90;99.90
41664;DHT22;27353;50.906;7.248;2022-12-07T14:38:23;5.90;99.90
41664;DHT22;27353;50.906;7.248;2022-12-07T14:40:49;5.90;99.90
41664;DHT22;27353;50.906;7.248;2022-12-07T14:43:16;5.80;99.90
41664;DHT22;27353;50.906;7.248;2022-12-07T14:45:42;5.90;99.90
41664;DHT22;27353;50.906;7.248;2022-12-07T14:48:08;5.80;99.90
41664;DHT22;27353;50.906;7.248;2022-12-07T14:50:37;5.80;99.90
41664;DHT22;27353;50.906;7.248;2022-12-07T14:53:05;5.80;99.90
41664;DHT22;27353;50.906;7.248;2022-12-07T14:55:32;5.80;99.90
41664;DHT22;27353;50.906;7.248;2022-12-07T14:57:57;5.70;99.90
41664;DHT22;27353;50.906;7.248;2022-12-07T15:00:24;5.70;99.90
41664;DHT22;27353;50.906;7.248;2022-12-07T15:02:50;5.70;99.90
41664;DHT22;27353;50.906;7.248;2022-12-07T15:05:16;5.60;99.90
41664;DHT22;27353;50.906;7.248;2022-12-07T15:07:42;5.50;99.90
41664;DHT22;27353;50.906;7.248;2022-12-07T15:10:41;5.40;99.90
41664;DHT22;27353;50.906;7.248;2022-12-07T15:13:03;5.30;99.90
41664;DHT22;27353;50.906;7.248;2022-12-07T15:15:48;5.30;99.90
41664;DHT22;27353;50.906;7.248;2022-12-07T15:18:14;5.30;99.90
41664;DHT22;27353;50.906;7.248;2022-12-07T15:20:39;5.30;99.90
41664;DHT22;27353;50.906;7.248;2022-12-07T15:23:05;5.30;99.90
41664;DHT22;27353;50.906;7.248;2022-12-07T15:25:30;5.30;99.90
41664;DHT22;27353;50.906;7.248;2022-12-07T15:27:56;5.20;99.90
41664;DHT22;27353;50.906;7.248;2022-12-07T15:30:21;5.30;99.90
41664;DHT22;27353;50.906;7.248;2022-12-07T15:32:50;5.30;99.90
41664;DHT22;27353;50.906;7.248;2022-12-07T15:35:16;5.30;99.90
41664;DHT22;27353;50.906;7.248;2022-12-07T15:37:42;5.20;99.90
41664;DHT22;27353;50.906;7.248;2022-12-07T15:40:07;5.20;99.90
41664;DHT22;27353;50.906;7.248;2022-12-07T15:42:33;5.20;99.90
41664;DHT22;27353;50.906;7.248;2022-12-07T15:44:59;5.30;99.90
41664;DHT22;27353;50.906;7.248;2022-12-07T15:47:34;5.20;99.90
41664;DHT22;27353;50.906;7.248;2022-12-07T15:50:01;5.20;99.90
41664;DHT22;27353;50.906;7.248;2022-12-07T15:52:26;5.30;99.90
41664;DHT22;27353;50.906;7.248;2022-12-07T15:54:52;5.30;99.90
41664;DHT22;27353;50.906;7.248;2022-12-07T15:57:17;5.30;99.90
41664;DHT22;27353;50.906;7.248;2022-12-07T15:59:43;5.30;99.90
41664;DHT22;27353;50.906;7.248;2022-12-07T16:02:09;5.30;99.90
41664;DHT22;27353;50.906;7.248;2022-12-07T16:04:35;5.30;99.90
41664;DHT22;27353;50.906;7.248;2022-12-07T16:07:01;5.30;99.90
41664;DHT22;27353;50.906;7.248;2022-12-07T16:09:26;5.20;99.90
41664;DHT22;27353;50.906;7.248;2022-12-07T16:11:52;5.00;99.90
41664;DHT22;27353;50.906;7.248;2022-12-07T16:14:17;5.00;99.90
41664;DHT22;27353;50.906;7.248;2022-12-07T16:16:43;4.90;99.90
41664;DHT22;27353;50.906;7.248;2022-12-07T16:19:09;4.90;99.90
41664;DHT22;27353;50.906;7.248;2022-12-07T16:21:34;4.80;99.90
41664;DHT22;27353;50.906;7.248;2022-12-07T16:24:00;4.80;99.90
41664;DHT22;27353;50.906;7.248;2022-12-07T16:26:26;4.70;99.90
41664;DHT22;27353;50.906;7.248;2022-12-07T16:28:52;4.70;99.90
41664;DHT22;27353;50.906;7.248;2022-12-07T16:31:19;4.70;99.90
41664;DHT22;27353;50.906;7.248;2022-12-07T16:33:45;4.70;99.90
41664;DHT22;27353;50.906;7.248;2022-12-07T16:36:11;4.70;99.90
41664;DHT22;27353;50.906;7.248;2022-12-07T16:38:38;4.70;99.90
41664;DHT22;27353;50.906;7.248;2022-12-07T16:41:04;4.70;99.90
41664;DHT22;27353;50.906;7.248;2022-12-07T16:43:30;4.80;99.90
41664;DHT22;27353;50.906;7.248;2022-12-07T16:45:56;4.80;99.90
41664;DHT22;27353;50.906;7.248;2022-12-07T16:48:21;4.80;99.90
41664;DHT22;27353;50.906;7.248;2022-12-07T16:50:47;4.80;99.90
41664;DHT22;27353;50.906;7.248;2022-12-07T16:53:13;4.80;99.90
41664;DHT22;27353;50.906;7.248;2022-12-07T16:55:40;4.70;99.90
41664;DHT22;27353;50.906;7.248;2022-12-07T16:58:06;4.80;99.90
41664;DHT22;27353;50.906;7.248;2022-12-07T17:00:32;4.70;99.90
41664;DHT22;27353;50.906;7.248;2022-12-07T17:02:58;4.70;99.90
41664;DHT22;27353;50.906;7.248;2022-12-07T17:05:23;4.70;99.90
41664;DHT22;27353;50.906;7.248;2022-12-07T17:07:50;4.70;99.90
41664;DHT22;27353;50.906;7.248;2022-12-07T17:10:15;4.60;99.90
41664;DHT22;27353;50.906;7.248;2022-12-07T17:12:41;4.60;99.90
41664;DHT22;27353;50.906;7.248;2022-12-07T17:15:06;4.60;99.90
41664;DHT22;27353;50.906;7.248;2022-12-07T17:17:53;4.60;99.90
41664;DHT22;27353;50.906;7.248;2022-12-07T17:20:19;4.60;99.90
41664;DHT22;27353;50.906;7.248;2022-12-07T17:22:45;4.60;99.90
41664;DHT22;27353;50.906;7.248;2022-12-07T17:25:11;4.50;99.90
41664;DHT22;27353;50.906;7.248;2022-12-07T17:27:36;4.60;99.90
41664;DHT22;27353;50.906;7.248;2022-12-07T17:30:05;4.60;99.90
41664;DHT22;27353;50.906;7.248;2022-12-07T17:32:31;4.60;99.90
41664;DHT22;27353;50.906;7.248;2022-12-07T17:34:57;4.60;99.90